sensor_id;sensor_type;location;lat;lon;timestamp;pressure;altitude;pressure_sealevel;temperature;humidity
29815;BME280;16708;50.426;7.664;2023-08-24T00:03:10;989.68;;;17.69;100.00
29815;BME280;16708;50.426;7.664;2023-08-24T00:08:04;989.66;;;17.65;100.00
29815;BME280;16708;50.426;7.664;2023-08-24T00:12:58;989.69;;;17.54;100.00
29815;BME280;16708;50.426;7.664;2023-08-24T00:17:53;989.66;;;17.55;100.00
29815;BME280;16708;50.426;7.664;2023-08-24T00:22:46;989.77;;;17.44;100.00
29815;BME280;16708;50.426;7.664;2023-08-24T00:27:41;989.84;;;17.47;100.00
29815;BME280;16708;50.426;7.664;2023-08-24T00:32:39;989.80;;;17.46;100.00
29815;BME280;16708;50.426;7.664;2023-08-24T00:37:28;989.84;;;17.41;100.00
29815;BME280;16708;50.426;7.664;2023-08-24T00:42:22;989.88;;;17.31;100.00
29815;BME280;16708;50.426;7.664;2023-08-24T00:47:16;989.74;;;17.25;100.00
29815;BME280;16708;50.426;7.664;2023-08-24T00:52:11;989.68;;;17.21;100.00
29815;BME280;16708;50.426;7.664;2023-08-24T00:57:05;989.63;;;17.21;100.00
29815;BME280;16708;50.426;7.664;2023-08-24T01:01:59;989.67;;;17.19;100.00
29815;BME280;16708;50.426;7.664;2023-08-24T01:06:53;989.63;;;17.15;100.00
29815;BME280;16708;50.426;7.664;2023-08-24T01:11:46;989.56;;;17.12;100.00
29815;BME280;16708;50.426;7.664;2023-08-24T01:16:40;989.49;;;17.11;100.00
29815;BME280;16708;50.426;7.664;2023-08-24T01:21:35;989.65;;;17.06;100.00
29815;BME280;16708;50.426;7.664;2023-08-24T01:26:28;989.67;;;16.90;100.00
29815;BME280;16708;50.426;7.664;2023-08-24T01:31:22;989.78;;;16.89;100.00
29815;BME280;16708;50.426;7.664;2023-08-24T01:36:16;989.68;;;16.86;100.00
29815;BME280;16708;50.426;7.664;2023-08-24T01:41:11;989.65;;;16.81;100.00
29815;BME280;16708;50.426;7.664;2023-08-24T01:46:05;989.54;;;16.73;100.00
29815;BME280;16708;50.426;7.664;2023-08-24T01:50:59;989.53;;;16.77;100.00
29815;BME280;16708;50.426;7.664;2023-08-24T01:55:53;989.52;;;16.73;100.00
29815;BME280;16708;50.426;7.664;2023-08-24T02:00:46;989.43;;;16.64;100.00
29815;BME280;16708;50.426;7.664;2023-08-24T02:05:39;989.25;;;16.60;100.00
29815;BME280;16708;50.426;7.664;2023-08-24T02:10:33;989.21;;;16.59;100.00
29815;BME280;16708;50.426;7.664;2023-08-24T02:15:27;989.09;;;16.52;100.00
29815;BME280;16708;50.426;7.664;2023-08-24T02:20:21;989.06;;;16.43;100.00
29815;BME280;16708;50.426;7.664;2023-08-24T02:25:15;988.97;;;16.41;100.00
29815;BME280;16708;50.426;7.664;2023-08-24T02:30:08;988.85;;;16.42;100.00
29815;BME280;16708;50.426;7.664;2023-08-24T02:35:02;988.86;;;16.39;100.00
29815;BME280;16708;50.426;7.664;2023-08-24T02:39:56;988.75;;;16.27;100.00
29815;BME280;16708;50.426;7.664;2023-08-24T02:44:50;988.56;;;16.36;100.00
29815;BME280;16708;50.426;7.664;2023-08-24T02:49:44;988.64;;;16.37;100.00
29815;BME280;16708;50.426;7.664;2023-08-24T02:54:38;988.64;;;16.32;100.00
29815;BME280;16708;50.426;7.664;2023-08-24T02:59:31;988.67;;;16.29;100.00
29815;BME280;16708;50.426;7.664;2023-08-24T03:04:25;988.50;;;16.22;100.00
29815;BME280;16708;50.426;7.664;2023-08-24T03:09:20;988.58;;;16.25;100.00
29815;BME280;16708;50.426;7.664;2023-08-24T03:14:14;988.48;;;16.39;100.00
29815;BME280;16708;50.426;7.664;2023-08-24T03:19:09;988.45;;;16.43;100.00
29815;BME280;16708;50.426;7.664;2023-08-24T03:24:00;988.33;;;16.54;100.00
29815;BME280;16708;50.426;7.664;2023-08-24T03:28:54;988.15;;;16.65;100.00
29815;BME280;16708;50.426;7.664;2023-08-24T03:33:46;988.05;;;16.79;100.00
29815;BME280;16708;50.426;7.664;2023-08-24T03:38:45;988.05;;;16.92;100.00
29815;BME280;16708;50.426;7.664;2023-08-24T03:43:35;987.85;;;17.03;100.00
29815;BME280;16708;50.426;7.664;2023-08-24T03:48:35;987.83;;;17.10;100.00
29815;BME280;16708;50.426;7.664;2023-08-24T03:53:24;987.81;;;17.13;100.00
29815;BME280;16708;50.426;7.664;2023-08-24T03:58:18;987.87;;;17.09;100.00
29815;BME280;16708;50.426;7.664;2023-08-24T04:03:18;988.05;;;17.18;100.00
29815;BME280;16708;50.426;7.664;2023-08-24T04:08:08;988.28;;;17.47;100.00
29815;BME280;16708;50.426;7.664;2023-08-24T04:13:03;988.61;;;17.52;100.00
29815;BME280;16708;50.426;7.664;2023-08-24T04:17:57;989.27;;;17.31;100.00
29815;BME280;16708;50.426;7.664;2023-08-24T04:22:49;989.61;;;17.49;100.00
29815;BME280;16708;50.426;7.664;2023-08-24T04:27:43;989.84;;;17.32;100.00
29815;BME280;16708;50.426;7.664;2023-08-24T04:32:38;989.95;;;17.32;100.00
29815;BME280;16708;50.426;7.664;2023-08-24T04:37:31;989.79;;;17.44;100.00
29815;BME280;16708;50.426;7.664;2023-08-24T04:42:26;989.94;;;17.52;100.00
29815;BME280;16708;50.426;7.664;2023-08-24T04:47:19;990.05;;;17.45;100.00
29815;BME280;16708;50.426;7.664;2023-08-24T04:52:14;990.12;;;17.40;100.00
29815;BME280;16708;50.426;7.664;2023-08-24T04:57:09;990.16;;;17.41;100.00
29815;BME280;16708;50.426;7.664;2023-08-24T05:02:02;990.17;;;17.40;100.00
29815;BME280;16708;50.426;7.664;2023-08-24T05:06:56;990.20;;;17.41;100.00
29815;BME280;16708;50.426;7.664;2023-08-24T05:11:49;990.06;;;17.43;100.00
29815;BME280;16708;50.426;7.664;2023-08-24T05:16:43;990.14;;;17.46;100.00
29815;BME280;16708;50.426;7.664;2023-08-24T05:21:38;990.10;;;17.42;100.00
29815;BME280;16708;50.426;7.664;2023-08-24T05:26:31;990.01;;;17.28;100.00
29815;BME280;16708;50.426;7.664;2023-08-24T05:31:23;990.18;;;17.14;100.00
29815;BME280;16708;50.426;7.664;2023-08-24T05:36:18;990.10;;;17.26;100.00
29815;BME280;16708;50.426;7.664;2023-08-24T05:41:12;989.95;;;17.29;100.00
29815;BME280;16708;50.426;7.664;2023-08-24T05:46:06;989.47;;;17.32;100.00
29815;BME280;16708;50.426;7.664;2023-08-24T05:51:00;989.13;;;17.39;100.00
29815;BME280;16708;50.426;7.664;2023-08-24T05:55:54;989.27;;;17.49;100.00
29815;BME280;16708;50.426;7.664;2023-08-24T06:00:47;989.31;;;17.60;100.00
29815;BME280;16708;50.426;7.664;2023-08-24T06:05:40;989.12;;;17.62;100.00
29815;BME280;16708;50.426;7.664;2023-08-24T06:10:34;988.61;;;17.69;100.00
29815;BME280;16708;50.426;7.664;2023-08-24T06:15:29;988.13;;;17.84;100.00
29815;BME280;16708;50.426;7.664;2023-08-24T06:20:22;988.46;;;17.69;100.00
29815;BME280;16708;50.426;7.664;2023-08-24T06:25:17;988.41;;;18.08;100.00
29815;BME280;16708;50.426;7.664;2023-08-24T06:30:13;988.23;;;18.44;100.00
29815;BME280;16708;50.426;7.664;2023-08-24T06:35:02;988.05;;;18.89;100.00
29815;BME280;16708;50.426;7.664;2023-08-24T06:39:56;988.11;;;19.48;100.00
29815;BME280;16708;50.426;7.664;2023-08-24T06:44:49;988.29;;;19.71;100.00
29815;BME280;16708;50.426;7.664;2023-08-24T06:49:43;988.24;;;19.88;100.00
29815;BME280;16708;50.426;7.664;2023-08-24T06:54:37;987.93;;;19.88;100.00
29815;BME280;16708;50.426;7.664;2023-08-24T06:59:33;987.96;;;19.93;100.00
29815;BME280;16708;50.426;7.664;2023-08-24T07:04:26;987.93;;;19.75;100.00
29815;BME280;16708;50.426;7.664;2023-08-24T07:09:21;987.82;;;19.93;100.00
29815;BME280;16708;50.426;7.664;2023-08-24T07:14:15;987.80;;;19.92;100.00
29815;BME280;16708;50.426;7.664;2023-08-24T07:19:09;987.66;;;20.14;100.00
29815;BME280;16708;50.426;7.664;2023-08-24T07:24:05;987.65;;;20.18;100.00
29815;BME280;16708;50.426;7.664;2023-08-24T07:28:58;987.60;;;20.26;100.00
29815;BME280;16708;50.426;7.664;2023-08-24T07:33:52;987.64;;;20.38;100.00
29815;BME280;16708;50.426;7.664;2023-08-24T07:38:45;987.60;;;20.39;100.00
29815;BME280;16708;50.426;7.664;2023-08-24T07:43:39;987.45;;;20.88;100.00
29815;BME280;16708;50.426;7.664;2023-08-24T07:48:34;987.41;;;21.30;100.00
29815;BME280;16708;50.426;7.664;2023-08-24T07:53:28;987.20;;;21.71;100.00
29815;BME280;16708;50.426;7.664;2023-08-24T07:58:22;987.17;;;21.95;100.00
29815;BME280;16708;50.426;7.664;2023-08-24T08:03:16;987.11;;;22.43;100.00
29815;BME280;16708;50.426;7.664;2023-08-24T08:08:11;986.95;;;22.71;100.00
29815;BME280;16708;50.426;7.664;2023-08-24T08:13:04;987.05;;;22.98;100.00
29815;BME280;16708;50.426;7.664;2023-08-24T08:17:58;987.36;;;23.01;100.00
29815;BME280;16708;50.426;7.664;2023-08-24T08:22:52;987.39;;;23.04;100.00
29815;BME280;16708;50.426;7.664;2023-08-24T08:27:44;987.33;;;23.35;100.00
29815;BME280;16708;50.426;7.664;2023-08-24T08:32:38;987.27;;;23.53;100.00
29815;BME280;16708;50.426;7.664;2023-08-24T08:37:32;987.23;;;23.75;100.00
29815;BME280;16708;50.426;7.664;2023-08-24T08:42:27;987.29;;;24.05;100.00
29815;BME280;16708;50.426;7.664;2023-08-24T08:47:21;987.30;;;24.51;100.00
29815;BME280;16708;50.426;7.664;2023-08-24T08:52:15;987.16;;;24.92;100.00
29815;BME280;16708;50.426;7.664;2023-08-24T08:57:10;987.13;;;24.69;100.00
29815;BME280;16708;50.426;7.664;2023-08-24T09:02:03;987.09;;;25.02;100.00
29815;BME280;16708;50.426;7.664;2023-08-24T09:06:58;986.97;;;25.41;100.00
29815;BME280;16708;50.426;7.664;2023-08-24T09:11:52;986.90;;;25.89;100.00
29815;BME280;16708;50.426;7.664;2023-08-24T09:16:44;986.78;;;26.10;98.19
29815;BME280;16708;50.426;7.664;2023-08-24T09:21:39;986.62;;;26.51;90.63
29815;BME280;16708;50.426;7.664;2023-08-24T09:26:32;986.52;;;26.87;89.82
29815;BME280;16708;50.426;7.664;2023-08-24T09:31:28;986.44;;;27.67;77.91
29815;BME280;16708;50.426;7.664;2023-08-24T09:36:22;986.33;;;28.85;64.54
29815;BME280;16708;50.426;7.664;2023-08-24T09:41:17;986.28;;;29.04;60.27
29815;BME280;16708;50.426;7.664;2023-08-24T09:46:12;986.24;;;29.65;55.64
29815;BME280;16708;50.426;7.664;2023-08-24T09:51:07;986.30;;;30.16;55.10
29815;BME280;16708;50.426;7.664;2023-08-24T09:56:02;986.20;;;30.43;53.88
29815;BME280;16708;50.426;7.664;2023-08-24T10:00:58;986.15;;;30.07;53.16
29815;BME280;16708;50.426;7.664;2023-08-24T10:05:52;986.11;;;29.43;59.99
29815;BME280;16708;50.426;7.664;2023-08-24T10:10:45;986.12;;;28.79;59.86
29815;BME280;16708;50.426;7.664;2023-08-24T10:15:38;986.23;;;28.00;71.19
29815;BME280;16708;50.426;7.664;2023-08-24T10:20:32;986.27;;;29.43;63.45
29815;BME280;16708;50.426;7.664;2023-08-24T10:25:24;986.30;;;30.13;57.50
29815;BME280;16708;50.426;7.664;2023-08-24T10:30:18;986.36;;;29.37;56.96
29815;BME280;16708;50.426;7.664;2023-08-24T10:35:11;986.27;;;29.05;64.00
29815;BME280;16708;50.426;7.664;2023-08-24T10:40:05;986.29;;;29.03;63.48
29815;BME280;16708;50.426;7.664;2023-08-24T10:44:59;986.59;;;28.29;65.48
29815;BME280;16708;50.426;7.664;2023-08-24T10:49:52;986.56;;;28.22;65.25
29815;BME280;16708;50.426;7.664;2023-08-24T10:54:44;986.38;;;27.79;64.32
29815;BME280;16708;50.426;7.664;2023-08-24T10:59:38;986.34;;;28.31;63.72
29815;BME280;16708;50.426;7.664;2023-08-24T11:04:32;986.39;;;28.27;62.25
29815;BME280;16708;50.426;7.664;2023-08-24T11:14:21;986.26;;;29.79;58.01
29815;BME280;16708;50.426;7.664;2023-08-24T11:19:16;986.18;;;29.28;59.11
29815;BME280;16708;50.426;7.664;2023-08-24T11:24:10;986.05;;;29.98;54.74
29815;BME280;16708;50.426;7.664;2023-08-24T11:29:04;985.91;;;30.06;53.18
29815;BME280;16708;50.426;7.664;2023-08-24T11:33:59;985.79;;;29.42;54.29
29815;BME280;16708;50.426;7.664;2023-08-24T11:38:53;985.87;;;29.63;59.47
29815;BME280;16708;50.426;7.664;2023-08-24T11:43:45;985.81;;;28.47;71.50
29815;BME280;16708;50.426;7.664;2023-08-24T11:48:37;985.75;;;28.50;63.84
29815;BME280;16708;50.426;7.664;2023-08-24T11:53:31;985.59;;;28.96;62.19
29815;BME280;16708;50.426;7.664;2023-08-24T11:58:25;985.57;;;28.80;68.34
29815;BME280;16708;50.426;7.664;2023-08-24T12:03:19;985.53;;;28.48;72.87
29815;BME280;16708;50.426;7.664;2023-08-24T12:08:13;985.64;;;28.54;83.26
29815;BME280;16708;50.426;7.664;2023-08-24T12:13:07;985.67;;;28.48;76.38
29815;BME280;16708;50.426;7.664;2023-08-24T12:18:01;985.61;;;28.19;73.36
29815;BME280;16708;50.426;7.664;2023-08-24T12:22:56;985.85;;;27.89;62.79
29815;BME280;16708;50.426;7.664;2023-08-24T12:27:48;986.40;;;27.14;90.38
29815;BME280;16708;50.426;7.664;2023-08-24T12:32:42;986.69;;;26.50;97.63
29815;BME280;16708;50.426;7.664;2023-08-24T12:37:35;986.67;;;26.68;96.21
29815;BME280;16708;50.426;7.664;2023-08-24T12:42:29;986.77;;;26.72;100.00
29815;BME280;16708;50.426;7.664;2023-08-24T12:47:25;986.77;;;26.33;100.00
29815;BME280;16708;50.426;7.664;2023-08-24T12:52:15;986.74;;;25.84;100.00
29815;BME280;16708;50.426;7.664;2023-08-24T12:57:09;986.79;;;25.31;100.00
29815;BME280;16708;50.426;7.664;2023-08-24T13:02:02;986.46;;;25.23;100.00
29815;BME280;16708;50.426;7.664;2023-08-24T13:06:56;986.91;;;24.37;100.00
29815;BME280;16708;50.426;7.664;2023-08-24T13:11:49;986.80;;;23.60;100.00
29815;BME280;16708;50.426;7.664;2023-08-24T13:16:43;986.90;;;23.04;100.00
29815;BME280;16708;50.426;7.664;2023-08-24T13:21:37;986.92;;;22.72;100.00
29815;BME280;16708;50.426;7.664;2023-08-24T13:26:30;986.87;;;22.28;100.00
29815;BME280;16708;50.426;7.664;2023-08-24T13:31:25;986.53;;;22.34;100.00
29815;BME280;16708;50.426;7.664;2023-08-24T13:36:19;985.92;;;22.33;100.00
29815;BME280;16708;50.426;7.664;2023-08-24T13:41:13;984.92;;;22.43;100.00
29815;BME280;16708;50.426;7.664;2023-08-24T13:46:07;984.84;;;22.63;100.00
29815;BME280;16708;50.426;7.664;2023-08-24T13:51:02;984.83;;;22.82;100.00
29815;BME280;16708;50.426;7.664;2023-08-24T13:55:55;984.61;;;23.14;100.00
29815;BME280;16708;50.426;7.664;2023-08-24T14:00:49;984.23;;;23.50;100.00
29815;BME280;16708;50.426;7.664;2023-08-24T14:05:44;984.09;;;23.67;100.00
29815;BME280;16708;50.426;7.664;2023-08-24T14:10:38;983.99;;;23.29;100.00
29815;BME280;16708;50.426;7.664;2023-08-24T14:15:32;984.16;;;23.09;100.00
29815;BME280;16708;50.426;7.664;2023-08-24T14:20:26;984.27;;;23.01;100.00
29815;BME280;16708;50.426;7.664;2023-08-24T14:25:20;984.36;;;23.17;100.00
29815;BME280;16708;50.426;7.664;2023-08-24T14:30:15;984.75;;;22.68;100.00
29815;BME280;16708;50.426;7.664;2023-08-24T14:35:08;985.22;;;22.28;100.00
29815;BME280;16708;50.426;7.664;2023-08-24T14:40:02;985.53;;;22.12;100.00
29815;BME280;16708;50.426;7.664;2023-08-24T14:44:56;985.73;;;21.95;100.00
29815;BME280;16708;50.426;7.664;2023-08-24T14:49:50;985.87;;;22.18;100.00
29815;BME280;16708;50.426;7.664;2023-08-24T14:54:45;985.78;;;22.19;100.00
29815;BME280;16708;50.426;7.664;2023-08-24T14:59:38;985.99;;;22.33;100.00
29815;BME280;16708;50.426;7.664;2023-08-24T15:04:32;985.99;;;22.24;100.00
29815;BME280;16708;50.426;7.664;2023-08-24T15:09:26;985.79;;;22.12;100.00
29815;BME280;16708;50.426;7.664;2023-08-24T15:14:19;985.83;;;21.96;100.00
29815;BME280;16708;50.426;7.664;2023-08-24T15:19:14;985.64;;;21.96;100.00
29815;BME280;16708;50.426;7.664;2023-08-24T15:24:08;985.68;;;21.93;100.00
29815;BME280;16708;50.426;7.664;2023-08-24T15:29:02;986.04;;;21.76;100.00
29815;BME280;16708;50.426;7.664;2023-08-24T15:33:56;986.25;;;21.52;100.00
29815;BME280;16708;50.426;7.664;2023-08-24T15:38:49;986.58;;;21.34;100.00
29815;BME280;16708;50.426;7.664;2023-08-24T15:43:43;986.67;;;21.16;100.00
29815;BME280;16708;50.426;7.664;2023-08-24T15:48:37;986.27;;;20.99;100.00
29815;BME280;16708;50.426;7.664;2023-08-24T15:53:29;986.01;;;21.01;100.00
29815;BME280;16708;50.426;7.664;2023-08-24T15:58:23;986.18;;;20.85;100.00
29815;BME280;16708;50.426;7.664;2023-08-24T16:03:17;985.97;;;21.03;100.00
29815;BME280;16708;50.426;7.664;2023-08-24T16:08:13;985.78;;;21.05;100.00
29815;BME280;16708;50.426;7.664;2023-08-24T16:13:06;985.26;;;21.11;100.00
29815;BME280;16708;50.426;7.664;2023-08-24T16:18:00;984.84;;;21.11;100.00
29815;BME280;16708;50.426;7.664;2023-08-24T16:22:53;984.66;;;20.95;100.00
29815;BME280;16708;50.426;7.664;2023-08-24T16:27:46;984.80;;;20.97;100.00
29815;BME280;16708;50.426;7.664;2023-08-24T16:32:41;984.72;;;21.16;100.00
29815;BME280;16708;50.426;7.664;2023-08-24T16:37:33;984.67;;;21.04;100.00
29815;BME280;16708;50.426;7.664;2023-08-24T16:42:27;984.54;;;20.97;100.00
29815;BME280;16708;50.426;7.664;2023-08-24T16:47:21;984.45;;;20.82;100.00
29815;BME280;16708;50.426;7.664;2023-08-24T16:52:14;984.47;;;20.65;100.00
29815;BME280;16708;50.426;7.664;2023-08-24T16:57:07;984.37;;;20.66;100.00
29815;BME280;16708;50.426;7.664;2023-08-24T17:02:01;984.34;;;20.70;100.00
29815;BME280;16708;50.426;7.664;2023-08-24T17:06:55;984.26;;;20.65;100.00
29815;BME280;16708;50.426;7.664;2023-08-24T17:11:49;984.40;;;20.37;100.00
29815;BME280;16708;50.426;7.664;2023-08-24T17:16:43;984.49;;;20.25;100.00
29815;BME280;16708;50.426;7.664;2023-08-24T17:21:39;984.63;;;20.18;100.00
29815;BME280;16708;50.426;7.664;2023-08-24T17:26:32;984.97;;;20.02;100.00
29815;BME280;16708;50.426;7.664;2023-08-24T17:31:26;985.08;;;20.07;100.00
29815;BME280;16708;50.426;7.664;2023-08-24T17:36:18;984.40;;;20.12;100.00
29815;BME280;16708;50.426;7.664;2023-08-24T17:41:12;984.09;;;20.13;100.00
29815;BME280;16708;50.426;7.664;2023-08-24T17:46:06;983.68;;;20.20;100.00
29815;BME280;16708;50.426;7.664;2023-08-24T17:51:01;983.26;;;20.08;100.00
29815;BME280;16708;50.426;7.664;2023-08-24T17:55:54;983.13;;;20.03;100.00
29815;BME280;16708;50.426;7.664;2023-08-24T18:00:48;983.07;;;20.02;100.00
29815;BME280;16708;50.426;7.664;2023-08-24T18:05:41;982.96;;;20.02;100.00
29815;BME280;16708;50.426;7.664;2023-08-24T18:10:35;982.81;;;19.96;100.00
29815;BME280;16708;50.426;7.664;2023-08-24T18:15:29;982.96;;;20.05;100.00
29815;BME280;16708;50.426;7.664;2023-08-24T18:20:23;982.95;;;20.11;100.00
29815;BME280;16708;50.426;7.664;2023-08-24T18:25:17;982.96;;;19.94;100.00
29815;BME280;16708;50.426;7.664;2023-08-24T18:30:11;982.89;;;19.72;100.00
29815;BME280;16708;50.426;7.664;2023-08-24T18:35:06;982.71;;;19.59;100.00
29815;BME280;16708;50.426;7.664;2023-08-24T18:39:59;982.59;;;19.58;100.00
29815;BME280;16708;50.426;7.664;2023-08-24T18:44:53;982.55;;;19.56;100.00
29815;BME280;16708;50.426;7.664;2023-08-24T18:49:47;982.54;;;19.55;100.00
29815;BME280;16708;50.426;7.664;2023-08-24T18:54:45;982.69;;;19.39;100.00
29815;BME280;16708;50.426;7.664;2023-08-24T18:59:36;982.57;;;19.57;100.00
29815;BME280;16708;50.426;7.664;2023-08-24T19:04:29;982.62;;;19.50;100.00
29815;BME280;16708;50.426;7.664;2023-08-24T19:09:22;982.50;;;19.45;100.00
29815;BME280;16708;50.426;7.664;2023-08-24T19:14:17;982.57;;;19.29;100.00
29815;BME280;16708;50.426;7.664;2023-08-24T19:19:11;982.41;;;19.12;100.00
29815;BME280;16708;50.426;7.664;2023-08-24T19:24:05;982.57;;;19.02;100.00
29815;BME280;16708;50.426;7.664;2023-08-24T19:29:00;982.47;;;18.79;100.00
29815;BME280;16708;50.426;7.664;2023-08-24T19:33:52;982.54;;;18.59;100.00
29815;BME280;16708;50.426;7.664;2023-08-24T19:38:46;982.49;;;18.47;100.00
29815;BME280;16708;50.426;7.664;2023-08-24T19:43:42;982.48;;;18.40;100.00
29815;BME280;16708;50.426;7.664;2023-08-24T19:48:34;982.43;;;18.33;100.00
29815;BME280;16708;50.426;7.664;2023-08-24T19:53:29;982.63;;;18.18;100.00
29815;BME280;16708;50.426;7.664;2023-08-24T19:58:23;982.79;;;18.07;100.00
29815;BME280;16708;50.426;7.664;2023-08-24T20:03:18;982.81;;;17.98;100.00
29815;BME280;16708;50.426;7.664;2023-08-24T20:08:12;982.78;;;17.93;100.00
29815;BME280;16708;50.426;7.664;2023-08-24T20:13:06;982.79;;;17.84;100.00
29815;BME280;16708;50.426;7.664;2023-08-24T20:18:01;982.83;;;17.81;100.00
29815;BME280;16708;50.426;7.664;2023-08-24T20:22:54;982.81;;;17.74;100.00
29815;BME280;16708;50.426;7.664;2023-08-24T20:27:48;982.85;;;17.76;100.00
29815;BME280;16708;50.426;7.664;2023-08-24T20:32:44;982.91;;;17.77;100.00
29815;BME280;16708;50.426;7.664;2023-08-24T20:37:38;983.13;;;17.71;100.00
29815;BME280;16708;50.426;7.664;2023-08-24T20:42:33;983.19;;;17.63;100.00
29815;BME280;16708;50.426;7.664;2023-08-24T20:47:27;983.24;;;17.58;100.00
29815;BME280;16708;50.426;7.664;2023-08-24T20:52:22;983.15;;;17.71;100.00
29815;BME280;16708;50.426;7.664;2023-08-24T20:57:16;983.13;;;17.76;100.00
29815;BME280;16708;50.426;7.664;2023-08-24T21:02:10;982.92;;;17.81;100.00
29815;BME280;16708;50.426;7.664;2023-08-24T21:07:05;982.96;;;17.69;100.00
29815;BME280;16708;50.426;7.664;2023-08-24T21:11:59;983.01;;;17.60;100.00
29815;BME280;16708;50.426;7.664;2023-08-24T21:16:54;983.00;;;17.45;100.00
29815;BME280;16708;50.426;7.664;2023-08-24T21:21:48;983.09;;;17.46;100.00
29815;BME280;16708;50.426;7.664;2023-08-24T21:26:41;983.25;;;17.67;100.00
29815;BME280;16708;50.426;7.664;2023-08-24T21:31:36;983.32;;;17.68;100.00
29815;BME280;16708;50.426;7.664;2023-08-24T21:36:29;983.18;;;17.76;100.00
29815;BME280;16708;50.426;7.664;2023-08-24T21:41:23;983.06;;;18.04;100.00
29815;BME280;16708;50.426;7.664;2023-08-24T21:46:17;982.91;;;18.09;100.00
29815;BME280;16708;50.426;7.664;2023-08-24T21:51:13;982.84;;;18.23;100.00
29815;BME280;16708;50.426;7.664;2023-08-24T21:56:08;982.75;;;18.11;100.00
29815;BME280;16708;50.426;7.664;2023-08-24T22:01:01;982.79;;;17.78;100.00
29815;BME280;16708;50.426;7.664;2023-08-24T22:05:55;982.91;;;17.54;100.00
29815;BME280;16708;50.426;7.664;2023-08-24T22:10:51;983.04;;;17.41;100.00
29815;BME280;16708;50.426;7.664;2023-08-24T22:15:46;983.15;;;17.28;100.00
29815;BME280;16708;50.426;7.664;2023-08-24T22:20:39;983.13;;;17.13;100.00
29815;BME280;16708;50.426;7.664;2023-08-24T22:25:33;983.18;;;17.19;100.00
29815;BME280;16708;50.426;7.664;2023-08-24T22:30:27;983.22;;;16.97;100.00
29815;BME280;16708;50.426;7.664;2023-08-24T22:35:21;983.39;;;16.88;100.00
29815;BME280;16708;50.426;7.664;2023-08-24T22:40:16;983.41;;;16.75;100.00
29815;BME280;16708;50.426;7.664;2023-08-24T22:45:10;983.39;;;16.71;100.00
29815;BME280;16708;50.426;7.664;2023-08-24T22:50:05;983.50;;;16.66;100.00
29815;BME280;16708;50.426;7.664;2023-08-24T22:54:59;983.66;;;16.69;100.00
29815;BME280;16708;50.426;7.664;2023-08-24T22:59:53;983.67;;;16.65;100.00
29815;BME280;16708;50.426;7.664;2023-08-24T23:04:47;983.64;;;16.54;100.00
29815;BME280;16708;50.426;7.664;2023-08-24T23:09:41;983.63;;;16.53;100.00
29815;BME280;16708;50.426;7.664;2023-08-24T23:14:35;983.67;;;16.44;100.00
29815;BME280;16708;50.426;7.664;2023-08-24T23:19:30;983.61;;;16.37;100.00
29815;BME280;16708;50.426;7.664;2023-08-24T23:24:24;983.61;;;16.34;100.00
29815;BME280;16708;50.426;7.664;2023-08-24T23:29:19;983.70;;;16.25;100.00
29815;BME280;16708;50.426;7.664;2023-08-24T23:34:13;983.75;;;16.33;100.00
29815;BME280;16708;50.426;7.664;2023-08-24T23:39:07;983.68;;;16.35;100.00
29815;BME280;16708;50.426;7.664;2023-08-24T23:44:01;983.70;;;16.43;100.00
29815;BME280;16708;50.426;7.664;2023-08-24T23:48:55;983.72;;;16.38;100.00
29815;BME280;16708;50.426;7.664;2023-08-24T23:53:49;983.66;;;16.39;100.00
29815;BME280;16708;50.426;7.664;2023-08-24T23:58:43;983.54;;;16.28;100.00
